sensor_id;sensor_type;location;lat;lon;timestamp;pressure;altitude;pressure_sealevel;temperature;humidity
28027;BME280;15344;52.342;-1.290;2023-01-08T00:01:43;98008.33;;;7.36;100.00
28027;BME280;15344;52.342;-1.290;2023-01-08T00:04:09;98009.90;;;7.59;100.00
28027;BME280;15344;52.342;-1.290;2023-01-08T00:06:34;98015.21;;;8.16;100.00
28027;BME280;15344;52.342;-1.290;2023-01-08T00:09:00;98014.09;;;8.28;100.00
28027;BME280;15344;52.342;-1.290;2023-01-08T00:11:25;98021.42;;;8.32;100.00
28027;BME280;15344;52.342;-1.290;2023-01-08T00:13:51;98029.71;;;8.11;100.00
28027;BME280;15344;52.342;-1.290;2023-01-08T00:16:17;98029.38;;;8.04;100.00
28027;BME280;15344;52.342;-1.290;2023-01-08T00:18:42;98030.99;;;8.09;100.00
28027;BME280;15344;52.342;-1.290;2023-01-08T00:21:08;98026.19;;;8.27;100.00
28027;BME280;15344;52.342;-1.290;2023-01-08T00:23:33;98024.13;;;8.51;100.00
28027;BME280;15344;52.342;-1.290;2023-01-08T00:26:00;98020.36;;;8.55;100.00
28027;BME280;15344;52.342;-1.290;2023-01-08T00:28:23;98023.17;;;8.31;100.00
28027;BME280;15344;52.342;-1.290;2023-01-08T00:30:49;98024.27;;;8.88;100.00
28027;BME280;15344;52.342;-1.290;2023-01-08T00:33:14;98020.71;;;8.31;100.00
28027;BME280;15344;52.342;-1.290;2023-01-08T00:35:40;98016.32;;;8.52;100.00
28027;BME280;15344;52.342;-1.290;2023-01-08T00:38:05;98009.80;;;8.53;100.00
28027;BME280;15344;52.342;-1.290;2023-01-08T00:40:32;98009.75;;;8.25;100.00
28027;BME280;15344;52.342;-1.290;2023-01-08T00:42:56;98006.49;;;8.24;100.00
28027;BME280;15344;52.342;-1.290;2023-01-08T00:45:21;97999.71;;;8.19;100.00
28027;BME280;15344;52.342;-1.290;2023-01-08T00:47:47;98005.37;;;8.26;100.00
28027;BME280;15344;52.342;-1.290;2023-01-08T00:50:12;98002.50;;;8.08;100.00
28027;BME280;15344;52.342;-1.290;2023-01-08T00:52:38;97999.08;;;7.78;100.00
28027;BME280;15344;52.342;-1.290;2023-01-08T00:55:03;98001.22;;;7.88;100.00
28027;BME280;15344;52.342;-1.290;2023-01-08T00:57:32;98003.04;;;7.76;100.00
28027;BME280;15344;52.342;-1.290;2023-01-08T00:59:54;97995.26;;;7.88;100.00
28027;BME280;15344;52.342;-1.290;2023-01-08T01:02:19;97986.39;;;7.62;100.00
28027;BME280;15344;52.342;-1.290;2023-01-08T01:04:45;97986.41;;;7.68;100.00
28027;BME280;15344;52.342;-1.290;2023-01-08T01:07:10;97991.49;;;7.52;100.00
28027;BME280;15344;52.342;-1.290;2023-01-08T01:09:37;97986.37;;;7.50;100.00
28027;BME280;15344;52.342;-1.290;2023-01-08T01:12:01;97985.59;;;7.82;100.00
28027;BME280;15344;52.342;-1.290;2023-01-08T01:14:26;97989.15;;;8.13;100.00
28027;BME280;15344;52.342;-1.290;2023-01-08T01:16:52;97989.96;;;7.87;100.00
28027;BME280;15344;52.342;-1.290;2023-01-08T01:19:17;97995.71;;;8.07;100.00
28027;BME280;15344;52.342;-1.290;2023-01-08T01:21:42;97994.39;;;7.64;100.00
28027;BME280;15344;52.342;-1.290;2023-01-08T01:24:10;97988.37;;;8.48;100.00
28027;BME280;15344;52.342;-1.290;2023-01-08T01:26:33;97986.45;;;8.00;100.00
28027;BME280;15344;52.342;-1.290;2023-01-08T01:28:59;97984.14;;;8.24;100.00
28027;BME280;15344;52.342;-1.290;2023-01-08T01:31:27;97983.78;;;8.25;100.00
28027;BME280;15344;52.342;-1.290;2023-01-08T01:33:50;97983.31;;;7.72;100.00
28027;BME280;15344;52.342;-1.290;2023-01-08T01:36:17;97982.53;;;7.86;100.00
28027;BME280;15344;52.342;-1.290;2023-01-08T01:38:42;97984.03;;;8.02;100.00
28027;BME280;15344;52.342;-1.290;2023-01-08T01:41:06;97987.02;;;7.95;100.00
28027;BME280;15344;52.342;-1.290;2023-01-08T01:43:34;97989.17;;;8.30;100.00
28027;BME280;15344;52.342;-1.290;2023-01-08T01:45:57;97998.70;;;8.56;100.00
28027;BME280;15344;52.342;-1.290;2023-01-08T01:48:22;97994.76;;;7.72;100.00
28027;BME280;15344;52.342;-1.290;2023-01-08T01:50:50;97989.65;;;8.17;100.00
28027;BME280;15344;52.342;-1.290;2023-01-08T01:53:18;97995.69;;;8.08;100.00
28027;BME280;15344;52.342;-1.290;2023-01-08T01:55:41;97994.59;;;8.37;100.00
28027;BME280;15344;52.342;-1.290;2023-01-08T01:58:10;97997.74;;;7.72;100.00
28027;BME280;15344;52.342;-1.290;2023-01-08T02:00:31;98004.45;;;7.96;100.00
28027;BME280;15344;52.342;-1.290;2023-01-08T02:02:55;98002.92;;;8.25;100.00
28027;BME280;15344;52.342;-1.290;2023-01-08T02:05:21;97999.38;;;7.84;100.00
28027;BME280;15344;52.342;-1.290;2023-01-08T02:07:50;98002.08;;;8.16;100.00
28027;BME280;15344;52.342;-1.290;2023-01-08T02:10:15;98002.04;;;8.05;100.00
28027;BME280;15344;52.342;-1.290;2023-01-08T02:12:40;97999.69;;;8.09;100.00
28027;BME280;15344;52.342;-1.290;2023-01-08T02:15:06;98000.45;;;8.23;100.00
28027;BME280;15344;52.342;-1.290;2023-01-08T02:17:35;97997.70;;;8.36;100.00
28027;BME280;15344;52.342;-1.290;2023-01-08T02:19:55;97998.43;;;7.88;100.00
28027;BME280;15344;52.342;-1.290;2023-01-08T02:22:28;98002.50;;;7.34;100.00
28027;BME280;15344;52.342;-1.290;2023-01-08T02:24:53;97997.35;;;7.66;100.00
28027;BME280;15344;52.342;-1.290;2023-01-08T02:27:08;98002.87;;;8.06;100.00
28027;BME280;15344;52.342;-1.290;2023-01-08T02:29:34;98002.35;;;7.83;100.00
28027;BME280;15344;52.342;-1.290;2023-01-08T02:31:59;98004.10;;;8.21;100.00
28027;BME280;15344;52.342;-1.290;2023-01-08T02:34:24;98006.75;;;8.17;100.00
28027;BME280;15344;52.342;-1.290;2023-01-08T02:36:52;98008.06;;;8.57;100.00
28027;BME280;15344;52.342;-1.290;2023-01-08T02:39:31;98010.36;;;8.44;100.00
28027;BME280;15344;52.342;-1.290;2023-01-08T02:41:51;98010.32;;;8.56;100.00
28027;BME280;15344;52.342;-1.290;2023-01-08T02:44:07;98002.86;;;8.27;100.00
28027;BME280;15344;52.342;-1.290;2023-01-08T02:46:33;98001.74;;;8.39;100.00
28027;BME280;15344;52.342;-1.290;2023-01-08T02:49:01;98003.51;;;8.65;100.00
28027;BME280;15344;52.342;-1.290;2023-01-08T02:51:26;98000.86;;;8.82;100.00
28027;BME280;15344;52.342;-1.290;2023-01-08T02:53:51;98000.79;;;8.44;100.00
28027;BME280;15344;52.342;-1.290;2023-01-08T02:56:15;98002.87;;;8.16;100.00
28027;BME280;15344;52.342;-1.290;2023-01-08T02:58:40;98005.08;;;8.35;100.00
28027;BME280;15344;52.342;-1.290;2023-01-08T03:01:07;98010.86;;;8.62;100.00
28027;BME280;15344;52.342;-1.290;2023-01-08T03:03:30;97998.15;;;8.59;100.00
28027;BME280;15344;52.342;-1.290;2023-01-08T03:05:58;97993.09;;;8.00;100.00
28027;BME280;15344;52.342;-1.290;2023-01-08T03:08:22;97986.46;;;7.97;100.00
28027;BME280;15344;52.342;-1.290;2023-01-08T03:10:51;97982.08;;;8.16;100.00
28027;BME280;15344;52.342;-1.290;2023-01-08T03:13:16;97986.19;;;8.29;100.00
28027;BME280;15344;52.342;-1.290;2023-01-08T03:15:43;97983.15;;;8.47;100.00
28027;BME280;15344;52.342;-1.290;2023-01-08T03:18:08;97984.15;;;8.82;100.00
28027;BME280;15344;52.342;-1.290;2023-01-08T03:20:29;97975.43;;;8.51;100.00
28027;BME280;15344;52.342;-1.290;2023-01-08T03:22:55;97974.41;;;8.31;100.00
28027;BME280;15344;52.342;-1.290;2023-01-08T03:25:22;97976.23;;;8.23;100.00
28027;BME280;15344;52.342;-1.290;2023-01-08T03:27:47;97981.90;;;7.83;100.00
28027;BME280;15344;52.342;-1.290;2023-01-08T03:30:11;97979.63;;;7.75;100.00
28027;BME280;15344;52.342;-1.290;2023-01-08T03:32:37;97979.92;;;7.90;100.00
28027;BME280;15344;52.342;-1.290;2023-01-08T03:35:02;97988.23;;;8.60;100.00
28027;BME280;15344;52.342;-1.290;2023-01-08T03:37:35;97988.26;;;8.10;100.00
28027;BME280;15344;52.342;-1.290;2023-01-08T03:39:56;97982.78;;;8.16;100.00
28027;BME280;15344;52.342;-1.290;2023-01-08T03:42:18;97976.68;;;8.61;100.00
28027;BME280;15344;52.342;-1.290;2023-01-08T03:44:43;97979.11;;;8.40;100.00
28027;BME280;15344;52.342;-1.290;2023-01-08T03:47:09;97978.99;;;8.72;100.00
28027;BME280;15344;52.342;-1.290;2023-01-08T03:49:34;97974.69;;;7.85;100.00
28027;BME280;15344;52.342;-1.290;2023-01-08T03:51:59;97972.90;;;8.50;100.00
28027;BME280;15344;52.342;-1.290;2023-01-08T03:54:28;97970.85;;;7.89;100.00
28027;BME280;15344;52.342;-1.290;2023-01-08T03:56:50;97967.79;;;7.99;100.00
28027;BME280;15344;52.342;-1.290;2023-01-08T03:59:16;97960.92;;;8.26;100.00
28027;BME280;15344;52.342;-1.290;2023-01-08T04:01:41;97960.91;;;7.76;100.00
28027;BME280;15344;52.342;-1.290;2023-01-08T04:04:07;97960.77;;;8.55;100.00
28027;BME280;15344;52.342;-1.290;2023-01-08T04:06:32;97962.50;;;8.21;100.00
28027;BME280;15344;52.342;-1.290;2023-01-08T04:08:57;97963.43;;;8.40;100.00
28027;BME280;15344;52.342;-1.290;2023-01-08T04:11:22;97964.17;;;8.00;100.00
28027;BME280;15344;52.342;-1.290;2023-01-08T04:13:48;97961.75;;;8.31;100.00
28027;BME280;15344;52.342;-1.290;2023-01-08T04:16:13;97955.27;;;8.61;100.00
28027;BME280;15344;52.342;-1.290;2023-01-08T04:18:39;97954.30;;;8.12;100.00
28027;BME280;15344;52.342;-1.290;2023-01-08T04:21:04;97947.22;;;8.23;100.00
28027;BME280;15344;52.342;-1.290;2023-01-08T04:23:29;97943.61;;;8.01;100.00
28027;BME280;15344;52.342;-1.290;2023-01-08T04:25:55;97943.35;;;7.85;100.00
28027;BME280;15344;52.342;-1.290;2023-01-08T04:28:21;97937.01;;;8.32;100.00
28027;BME280;15344;52.342;-1.290;2023-01-08T04:30:46;97936.61;;;8.04;100.00
28027;BME280;15344;52.342;-1.290;2023-01-08T04:33:12;97936.36;;;7.87;100.00
28027;BME280;15344;52.342;-1.290;2023-01-08T04:35:36;97931.42;;;7.55;100.00
28027;BME280;15344;52.342;-1.290;2023-01-08T04:38:02;97919.82;;;8.23;100.00
28027;BME280;15344;52.342;-1.290;2023-01-08T04:40:28;97921.32;;;8.42;100.00
28027;BME280;15344;52.342;-1.290;2023-01-08T04:42:53;97921.96;;;8.41;100.00
28027;BME280;15344;52.342;-1.290;2023-01-08T04:45:18;97922.19;;;8.22;100.00
28027;BME280;15344;52.342;-1.290;2023-01-08T04:47:43;97925.31;;;8.13;100.00
28027;BME280;15344;52.342;-1.290;2023-01-08T04:50:09;97925.62;;;7.71;100.00
28027;BME280;15344;52.342;-1.290;2023-01-08T04:52:36;97925.40;;;7.81;100.00
28027;BME280;15344;52.342;-1.290;2023-01-08T04:55:00;97926.98;;;7.69;100.00
28027;BME280;15344;52.342;-1.290;2023-01-08T04:57:25;97929.45;;;8.29;100.00
28027;BME280;15344;52.342;-1.290;2023-01-08T04:59:51;97928.58;;;8.05;100.00
28027;BME280;15344;52.342;-1.290;2023-01-08T05:02:17;97926.29;;;7.57;100.00
28027;BME280;15344;52.342;-1.290;2023-01-08T05:04:42;97927.31;;;7.52;100.00
28027;BME280;15344;52.342;-1.290;2023-01-08T05:07:07;97928.18;;;8.06;100.00
28027;BME280;15344;52.342;-1.290;2023-01-08T05:09:33;97925.71;;;7.98;100.00
28027;BME280;15344;52.342;-1.290;2023-01-08T05:11:58;97919.25;;;7.72;100.00
28027;BME280;15344;52.342;-1.290;2023-01-08T05:14:24;97920.01;;;7.56;100.00
28027;BME280;15344;52.342;-1.290;2023-01-08T05:16:49;97919.61;;;7.79;100.00
28027;BME280;15344;52.342;-1.290;2023-01-08T05:19:15;97916.48;;;7.50;100.00
28027;BME280;15344;52.342;-1.290;2023-01-08T05:21:40;97911.92;;;6.82;100.00
28027;BME280;15344;52.342;-1.290;2023-01-08T05:24:06;97913.85;;;8.03;100.00
28027;BME280;15344;52.342;-1.290;2023-01-08T05:26:32;97910.96;;;8.09;100.00
28027;BME280;15344;52.342;-1.290;2023-01-08T05:28:57;97908.77;;;8.05;100.00
28027;BME280;15344;52.342;-1.290;2023-01-08T05:31:22;97907.88;;;7.92;100.00
28027;BME280;15344;52.342;-1.290;2023-01-08T05:33:48;97898.15;;;8.14;100.00
28027;BME280;15344;52.342;-1.290;2023-01-08T05:36:14;97902.64;;;7.99;100.00
28027;BME280;15344;52.342;-1.290;2023-01-08T05:38:39;97905.99;;;8.12;100.00
28027;BME280;15344;52.342;-1.290;2023-01-08T05:41:05;97905.25;;;8.43;100.00
28027;BME280;15344;52.342;-1.290;2023-01-08T05:43:30;97909.06;;;7.58;100.00
28027;BME280;15344;52.342;-1.290;2023-01-08T05:45:57;97910.81;;;8.03;100.00
28027;BME280;15344;52.342;-1.290;2023-01-08T05:48:21;97911.12;;;7.45;100.00
28027;BME280;15344;52.342;-1.290;2023-01-08T05:50:48;97911.53;;;7.75;100.00
28027;BME280;15344;52.342;-1.290;2023-01-08T05:53:12;97912.61;;;7.68;100.00
28027;BME280;15344;52.342;-1.290;2023-01-08T05:55:37;97915.59;;;7.61;100.00
28027;BME280;15344;52.342;-1.290;2023-01-08T05:58:04;97913.27;;;7.67;100.00
28027;BME280;15344;52.342;-1.290;2023-01-08T06:00:29;97910.89;;;8.39;100.00
28027;BME280;15344;52.342;-1.290;2023-01-08T06:02:54;97916.57;;;8.01;100.00
28027;BME280;15344;52.342;-1.290;2023-01-08T06:05:19;97918.04;;;7.15;100.00
28027;BME280;15344;52.342;-1.290;2023-01-08T06:07:45;97914.88;;;7.39;100.00
28027;BME280;15344;52.342;-1.290;2023-01-08T06:10:10;97921.84;;;7.15;100.00
28027;BME280;15344;52.342;-1.290;2023-01-08T06:12:36;97916.15;;;6.99;100.00
28027;BME280;15344;52.342;-1.290;2023-01-08T06:15:02;97915.35;;;7.62;100.00
28027;BME280;15344;52.342;-1.290;2023-01-08T06:17:27;97917.72;;;7.75;100.00
28027;BME280;15344;52.342;-1.290;2023-01-08T06:19:52;97912.71;;;7.61;100.00
28027;BME280;15344;52.342;-1.290;2023-01-08T06:22:17;97908.97;;;7.37;100.00
28027;BME280;15344;52.342;-1.290;2023-01-08T06:24:43;97915.28;;;7.81;100.00
28027;BME280;15344;52.342;-1.290;2023-01-08T06:27:09;97916.48;;;7.02;100.00
28027;BME280;15344;52.342;-1.290;2023-01-08T06:29:35;97907.23;;;7.07;100.00
28027;BME280;15344;52.342;-1.290;2023-01-08T06:31:59;97911.85;;;7.11;100.00
28027;BME280;15344;52.342;-1.290;2023-01-08T06:34:25;97906.73;;;7.44;100.00
28027;BME280;15344;52.342;-1.290;2023-01-08T06:36:50;97906.56;;;7.60;100.00
28027;BME280;15344;52.342;-1.290;2023-01-08T06:39:16;97906.04;;;7.18;100.00
28027;BME280;15344;52.342;-1.290;2023-01-08T06:41:42;97902.58;;;7.53;100.00
28027;BME280;15344;52.342;-1.290;2023-01-08T06:44:07;97903.52;;;7.59;100.00
28027;BME280;15344;52.342;-1.290;2023-01-08T06:46:33;97904.00;;;8.10;100.00
28027;BME280;15344;52.342;-1.290;2023-01-08T06:48:58;97897.22;;;7.96;100.00
28027;BME280;15344;52.342;-1.290;2023-01-08T06:51:23;97887.31;;;7.69;100.00
28027;BME280;15344;52.342;-1.290;2023-01-08T06:53:49;97886.11;;;7.61;100.00
28027;BME280;15344;52.342;-1.290;2023-01-08T06:56:15;97882.71;;;8.01;100.00
28027;BME280;15344;52.342;-1.290;2023-01-08T06:58:40;97879.93;;;7.77;100.00
28027;BME280;15344;52.342;-1.290;2023-01-08T07:01:06;97881.80;;;8.02;100.00
28027;BME280;15344;52.342;-1.290;2023-01-08T07:03:31;97891.48;;;8.23;100.00
28027;BME280;15344;52.342;-1.290;2023-01-08T07:05:57;97902.36;;;7.83;100.00
28027;BME280;15344;52.342;-1.290;2023-01-08T07:08:22;97904.74;;;8.10;100.00
28027;BME280;15344;52.342;-1.290;2023-01-08T07:10:48;97908.95;;;7.65;100.00
28027;BME280;15344;52.342;-1.290;2023-01-08T07:13:13;97907.22;;;8.32;100.00
28027;BME280;15344;52.342;-1.290;2023-01-08T07:15:40;97913.88;;;8.06;100.00
28027;BME280;15344;52.342;-1.290;2023-01-08T07:18:04;97917.00;;;7.85;100.00
28027;BME280;15344;52.342;-1.290;2023-01-08T07:20:29;97918.23;;;8.02;100.00
28027;BME280;15344;52.342;-1.290;2023-01-08T07:22:55;97915.26;;;8.02;100.00
28027;BME280;15344;52.342;-1.290;2023-01-08T07:25:21;97903.11;;;8.25;100.00
28027;BME280;15344;52.342;-1.290;2023-01-08T07:27:48;97908.98;;;7.91;100.00
28027;BME280;15344;52.342;-1.290;2023-01-08T07:30:12;97912.21;;;7.71;100.00
28027;BME280;15344;52.342;-1.290;2023-01-08T07:32:37;97910.48;;;7.84;100.00
28027;BME280;15344;52.342;-1.290;2023-01-08T07:35:03;97909.06;;;7.72;100.00
28027;BME280;15344;52.342;-1.290;2023-01-08T07:37:28;97899.49;;;8.51;100.00
28027;BME280;15344;52.342;-1.290;2023-01-08T07:39:53;97898.67;;;8.60;100.00
28027;BME280;15344;52.342;-1.290;2023-01-08T07:42:19;97895.58;;;8.21;100.00
28027;BME280;15344;52.342;-1.290;2023-01-08T07:44:44;97890.70;;;8.70;100.00
28027;BME280;15344;52.342;-1.290;2023-01-08T07:47:10;97888.72;;;8.25;100.00
28027;BME280;15344;52.342;-1.290;2023-01-08T07:49:35;97887.92;;;8.51;100.00
28027;BME280;15344;52.342;-1.290;2023-01-08T07:52:01;97891.03;;;8.21;100.00
28027;BME280;15344;52.342;-1.290;2023-01-08T07:54:26;97892.66;;;8.02;100.00
28027;BME280;15344;52.342;-1.290;2023-01-08T07:56:53;97889.81;;;7.48;100.00
28027;BME280;15344;52.342;-1.290;2023-01-08T07:59:17;97888.88;;;7.80;100.00
28027;BME280;15344;52.342;-1.290;2023-01-08T08:01:43;97884.18;;;8.03;100.00
28027;BME280;15344;52.342;-1.290;2023-01-08T08:04:08;97883.68;;;8.29;100.00
28027;BME280;15344;52.342;-1.290;2023-01-08T08:06:34;97878.26;;;8.41;100.00
28027;BME280;15344;52.342;-1.290;2023-01-08T08:08:59;97868.41;;;8.27;100.00
28027;BME280;15344;52.342;-1.290;2023-01-08T08:11:24;97862.82;;;7.75;100.00
28027;BME280;15344;52.342;-1.290;2023-01-08T08:13:50;97855.85;;;7.25;100.00
28027;BME280;15344;52.342;-1.290;2023-01-08T08:16:15;97847.83;;;8.12;100.00
28027;BME280;15344;52.342;-1.290;2023-01-08T08:18:41;97853.37;;;7.89;100.00
28027;BME280;15344;52.342;-1.290;2023-01-08T08:21:06;97853.40;;;7.85;100.00
28027;BME280;15344;52.342;-1.290;2023-01-08T08:23:32;97851.50;;;7.98;100.00
28027;BME280;15344;52.342;-1.290;2023-01-08T08:25:57;97834.94;;;8.81;100.00
28027;BME280;15344;52.342;-1.290;2023-01-08T08:28:23;97835.33;;;8.57;100.00
28027;BME280;15344;52.342;-1.290;2023-01-08T08:30:50;97830.11;;;8.55;100.00
28027;BME280;15344;52.342;-1.290;2023-01-08T08:33:14;97830.84;;;8.17;100.00
28027;BME280;15344;52.342;-1.290;2023-01-08T08:35:40;97820.14;;;8.06;100.00
28027;BME280;15344;52.342;-1.290;2023-01-08T08:38:05;97828.62;;;8.03;100.00
28027;BME280;15344;52.342;-1.290;2023-01-08T08:40:30;97829.81;;;7.26;100.00
28027;BME280;15344;52.342;-1.290;2023-01-08T08:42:56;97835.78;;;7.20;100.00
28027;BME280;15344;52.342;-1.290;2023-01-08T08:45:22;97836.21;;;7.55;100.00
28027;BME280;15344;52.342;-1.290;2023-01-08T08:47:47;97827.07;;;7.80;100.00
28027;BME280;15344;52.342;-1.290;2023-01-08T08:50:12;97826.93;;;7.59;100.00
28027;BME280;15344;52.342;-1.290;2023-01-08T08:52:38;97819.58;;;8.06;100.00
28027;BME280;15344;52.342;-1.290;2023-01-08T08:55:04;97819.75;;;8.07;100.00
28027;BME280;15344;52.342;-1.290;2023-01-08T08:57:29;97814.83;;;7.66;100.00
28027;BME280;15344;52.342;-1.290;2023-01-08T08:59:55;97810.59;;;7.76;100.00
28027;BME280;15344;52.342;-1.290;2023-01-08T09:02:20;97804.37;;;7.12;100.00
28027;BME280;15344;52.342;-1.290;2023-01-08T09:04:46;97802.26;;;7.57;100.00
28027;BME280;15344;52.342;-1.290;2023-01-08T09:07:11;97795.37;;;7.67;100.00
28027;BME280;15344;52.342;-1.290;2023-01-08T09:09:37;97792.45;;;7.52;100.00
28027;BME280;15344;52.342;-1.290;2023-01-08T09:12:02;97778.62;;;7.56;100.00
28027;BME280;15344;52.342;-1.290;2023-01-08T09:14:28;97781.83;;;7.69;100.00
28027;BME280;15344;52.342;-1.290;2023-01-08T09:16:53;97769.84;;;7.86;100.00
28027;BME280;15344;52.342;-1.290;2023-01-08T09:19:19;97772.92;;;7.93;100.00
28027;BME280;15344;52.342;-1.290;2023-01-08T09:21:44;97770.67;;;7.78;100.00
28027;BME280;15344;52.342;-1.290;2023-01-08T09:24:10;97773.61;;;8.20;100.00
28027;BME280;15344;52.342;-1.290;2023-01-08T09:26:35;97768.68;;;7.90;100.00
28027;BME280;15344;52.342;-1.290;2023-01-08T09:29:01;97760.62;;;7.37;100.00
28027;BME280;15344;52.342;-1.290;2023-01-08T09:31:26;97757.34;;;7.40;100.00
28027;BME280;15344;52.342;-1.290;2023-01-08T09:33:52;97756.87;;;7.78;100.00
28027;BME280;15344;52.342;-1.290;2023-01-08T09:36:17;97757.70;;;7.74;100.00
28027;BME280;15344;52.342;-1.290;2023-01-08T09:38:43;97742.25;;;7.97;100.00
28027;BME280;15344;52.342;-1.290;2023-01-08T09:41:12;97734.42;;;8.46;100.00
28027;BME280;15344;52.342;-1.290;2023-01-08T09:43:36;97736.56;;;8.00;100.00
28027;BME280;15344;52.342;-1.290;2023-01-08T09:46:02;97733.42;;;7.65;100.00
28027;BME280;15344;52.342;-1.290;2023-01-08T09:48:27;97743.49;;;7.95;100.00
28027;BME280;15344;52.342;-1.290;2023-01-08T09:50:50;97736.21;;;7.45;100.00
28027;BME280;15344;52.342;-1.290;2023-01-08T09:53:17;97730.30;;;7.48;100.00
28027;BME280;15344;52.342;-1.290;2023-01-08T09:55:42;97731.87;;;7.55;100.00
28027;BME280;15344;52.342;-1.290;2023-01-08T09:58:15;97725.73;;;7.62;100.00
28027;BME280;15344;52.342;-1.290;2023-01-08T10:00:33;97731.02;;;7.66;100.00
28027;BME280;15344;52.342;-1.290;2023-01-08T10:02:58;97733.55;;;7.61;100.00
28027;BME280;15344;52.342;-1.290;2023-01-08T10:05:25;97729.09;;;7.88;100.00
28027;BME280;15344;52.342;-1.290;2023-01-08T10:07:49;97727.81;;;7.89;100.00
28027;BME280;15344;52.342;-1.290;2023-01-08T10:10:18;97715.36;;;8.16;100.00
28027;BME280;15344;52.342;-1.290;2023-01-08T10:12:40;97716.38;;;7.97;100.00
28027;BME280;15344;52.342;-1.290;2023-01-08T10:15:07;97711.23;;;7.99;100.00
28027;BME280;15344;52.342;-1.290;2023-01-08T10:17:35;97709.69;;;7.50;100.00
28027;BME280;15344;52.342;-1.290;2023-01-08T10:19:56;97703.13;;;7.73;100.00
28027;BME280;15344;52.342;-1.290;2023-01-08T10:22:24;97695.36;;;7.69;100.00
28027;BME280;15344;52.342;-1.290;2023-01-08T10:24:47;97698.09;;;8.21;100.00
28027;BME280;15344;52.342;-1.290;2023-01-08T10:27:14;97697.05;;;7.99;100.00
28027;BME280;15344;52.342;-1.290;2023-01-08T10:29:38;97687.50;;;7.42;100.00
28027;BME280;15344;52.342;-1.290;2023-01-08T10:32:08;97683.20;;;7.97;100.00
28027;BME280;15344;52.342;-1.290;2023-01-08T10:34:31;97686.66;;;7.82;100.00
28027;BME280;15344;52.342;-1.290;2023-01-08T10:36:55;97669.20;;;7.65;100.00
28027;BME280;15344;52.342;-1.290;2023-01-08T10:39:22;97664.08;;;7.58;100.00
28027;BME280;15344;52.342;-1.290;2023-01-08T10:41:45;97666.85;;;7.55;100.00
28027;BME280;15344;52.342;-1.290;2023-01-08T10:44:15;97662.24;;;7.43;100.00
28027;BME280;15344;52.342;-1.290;2023-01-08T10:46:41;97657.68;;;7.81;100.00
28027;BME280;15344;52.342;-1.290;2023-01-08T10:49:03;97648.21;;;7.36;100.00
28027;BME280;15344;52.342;-1.290;2023-01-08T10:51:29;97643.52;;;7.62;100.00
28027;BME280;15344;52.342;-1.290;2023-01-08T10:53:57;97652.12;;;7.84;100.00
28027;BME280;15344;52.342;-1.290;2023-01-08T10:56:20;97644.54;;;7.93;100.00
28027;BME280;15344;52.342;-1.290;2023-01-08T10:58:44;97635.28;;;7.80;100.00
28027;BME280;15344;52.342;-1.290;2023-01-08T11:01:10;97633.52;;;7.83;100.00
28027;BME280;15344;52.342;-1.290;2023-01-08T11:03:34;97632.00;;;8.11;100.00
28027;BME280;15344;52.342;-1.290;2023-01-08T11:05:59;97635.42;;;8.06;100.00
28027;BME280;15344;52.342;-1.290;2023-01-08T11:08:25;97626.44;;;7.60;100.00
28027;BME280;15344;52.342;-1.290;2023-01-08T11:10:54;97621.73;;;7.94;100.00
28027;BME280;15344;52.342;-1.290;2023-01-08T11:13:17;97620.22;;;8.02;100.00
28027;BME280;15344;52.342;-1.290;2023-01-08T11:15:41;97607.30;;;8.18;100.00
28027;BME280;15344;52.342;-1.290;2023-01-08T11:18:17;97593.75;;;8.65;100.00
28027;BME280;15344;52.342;-1.290;2023-01-08T11:20:33;97594.36;;;8.42;100.00
28027;BME280;15344;52.342;-1.290;2023-01-08T11:23:04;97581.79;;;8.61;100.00
28027;BME280;15344;52.342;-1.290;2023-01-08T11:25:28;97571.71;;;8.75;100.00
28027;BME280;15344;52.342;-1.290;2023-01-08T11:27:50;97566.70;;;9.31;100.00
28027;BME280;15344;52.342;-1.290;2023-01-08T11:30:18;97560.07;;;9.37;100.00
28027;BME280;15344;52.342;-1.290;2023-01-08T11:32:45;97558.64;;;9.13;100.00
28027;BME280;15344;52.342;-1.290;2023-01-08T11:35:11;97538.94;;;8.98;100.00
28027;BME280;15344;52.342;-1.290;2023-01-08T11:37:35;97539.29;;;9.03;100.00
28027;BME280;15344;52.342;-1.290;2023-01-08T11:39:55;97539.64;;;9.32;100.00
28027;BME280;15344;52.342;-1.290;2023-01-08T11:42:32;97532.99;;;9.21;100.00
28027;BME280;15344;52.342;-1.290;2023-01-08T11:44:56;97536.09;;;8.66;100.00
28027;BME280;15344;52.342;-1.290;2023-01-08T11:47:17;97536.87;;;9.07;100.00
28027;BME280;15344;52.342;-1.290;2023-01-08T11:49:50;97534.01;;;9.17;100.00
28027;BME280;15344;52.342;-1.290;2023-01-08T11:52:15;97535.83;;;8.83;100.00
28027;BME280;15344;52.342;-1.290;2023-01-08T11:54:40;97531.51;;;8.85;100.00
28027;BME280;15344;52.342;-1.290;2023-01-08T11:57:05;97525.09;;;8.36;100.00
28027;BME280;15344;52.342;-1.290;2023-01-08T11:59:26;97521.74;;;9.08;100.00
28027;BME280;15344;52.342;-1.290;2023-01-08T12:01:53;97517.84;;;9.31;100.00
28027;BME280;15344;52.342;-1.290;2023-01-08T12:04:20;97509.95;;;8.65;100.00
28027;BME280;15344;52.342;-1.290;2023-01-08T12:06:40;97518.27;;;8.29;100.00
28027;BME280;15344;52.342;-1.290;2023-01-08T12:09:09;97507.53;;;8.45;100.00
28027;BME280;15344;52.342;-1.290;2023-01-08T12:11:27;97508.51;;;8.91;100.00
28027;BME280;15344;52.342;-1.290;2023-01-08T12:14:01;97501.31;;;8.92;100.00
28027;BME280;15344;52.342;-1.290;2023-01-08T12:16:29;97494.07;;;8.73;100.00
28027;BME280;15344;52.342;-1.290;2023-01-08T12:18:54;97484.92;;;8.55;100.00
28027;BME280;15344;52.342;-1.290;2023-01-08T12:21:13;97471.92;;;8.48;100.00
28027;BME280;15344;52.342;-1.290;2023-01-08T12:23:44;97467.80;;;8.45;100.00
28027;BME280;15344;52.342;-1.290;2023-01-08T12:26:06;97472.81;;;8.80;100.00
28027;BME280;15344;52.342;-1.290;2023-01-08T12:28:37;97462.64;;;9.21;100.00
28027;BME280;15344;52.342;-1.290;2023-01-08T12:31:02;97460.10;;;9.20;100.00
28027;BME280;15344;52.342;-1.290;2023-01-08T12:33:17;97457.93;;;8.68;100.00
28027;BME280;15344;52.342;-1.290;2023-01-08T12:35:43;97458.41;;;8.92;100.00
28027;BME280;15344;52.342;-1.290;2023-01-08T12:38:09;97448.73;;;8.49;100.00
28027;BME280;15344;52.342;-1.290;2023-01-08T12:40:33;97447.64;;;8.51;100.00